Time;durP1;ratioP1;P1;durP2;ratioP2;P2;SDS_P1;SDS_P2;PMS_P1;PMS_P2;Temp;Humidity;BMP_temperature;BMP_pressure;BME280_temperature;BME280_humidity;BME280_pressure;Samples;Min_cycle;Max_cycle;Signal;HPM_P1;HPM_P2
2023/06/14 00:01:45;;;;;;;5.10;4.60;;;;;;;18.65;56.43;101053.34;6274522;22;20019;-82
2023/06/14 00:04:11;;;;;;;6.78;5.00;;;;;;;18.57;56.45;101047.78;6276138;22;20064;-82
2023/06/14 00:06:38;;;;;;;11.80;4.95;;;;;;;18.62;56.46;101066.72;6273836;22;20351;-82
2023/06/14 00:09:04;;;;;;;6.65;4.57;;;;;;;18.65;56.54;101066.38;6273805;22;20015;-82
2023/06/14 00:11:31;;;;;;;10.73;4.75;;;;;;;18.61;55.85;101071.41;6274199;22;20038;-81
2023/06/14 00:13:57;;;;;;;9.85;4.57;;;;;;;18.50;57.24;101063.38;6249002;22;20406;-82
2023/06/14 00:16:23;;;;;;;7.38;4.45;;;;;;;18.42;57.47;101061.44;6274169;22;20011;-81
2023/06/14 00:18:48;;;;;;;8.43;4.45;;;;;;;18.37;58.17;101072.16;6273760;22;20338;-82
2023/06/14 00:21:14;;;;;;;9.55;4.57;;;;;;;18.40;57.99;101068.19;6274239;22;20024;-82
2023/06/14 00:23:39;;;;;;;9.90;4.63;;;;;;;18.31;57.98;101061.75;6274082;22;20046;-81
2023/06/14 00:26:05;;;;;;;5.20;4.30;;;;;;;18.26;58.70;101073.31;6273785;22;20018;-81
2023/06/14 00:28:30;;;;;;;5.43;4.18;;;;;;;18.30;57.70;101076.63;6273411;22;20004;-80
2023/06/14 00:30:56;;;;;;;6.63;4.13;;;;;;;18.16;57.87;101084.53;6248596;22;20016;-81
2023/06/14 00:33:21;;;;;;;5.32;4.30;;;;;;;18.09;59.04;101071.53;6274367;22;20023;-81
2023/06/14 00:35:47;;;;;;;15.00;5.25;;;;;;;18.12;58.49;101074.84;6275779;22;20023;-81
2023/06/14 00:38:12;;;;;;;10.07;4.53;;;;;;;17.97;59.18;101079.25;6222495;22;20012;-81
2023/06/14 00:40:38;;;;;;;6.45;4.38;;;;;;;17.90;59.77;101080.94;6274274;22;20011;-81
2023/06/14 00:43:04;;;;;;;5.05;4.00;;;;;;;17.95;59.48;101076.63;6273313;22;20026;-81
2023/06/14 00:45:31;;;;;;;9.98;4.38;;;;;;;17.96;58.88;101080.28;6223985;22;20023;-81
2023/06/14 00:47:57;;;;;;;5.53;4.00;;;;;;;17.89;58.92;101073.66;6274965;22;20019;-81
2023/06/14 00:50:23;;;;;;;7.30;4.32;;;;;;;17.81;58.84;101080.84;6200436;22;20287;-81
2023/06/14 00:52:49;;;;;;;7.53;3.97;;;;;;;17.81;58.62;101075.31;6277999;22;20485;-81
2023/06/14 00:55:15;;;;;;;8.57;4.47;;;;;;;17.71;59.82;101080.09;6250811;22;20015;-81
2023/06/14 00:57:41;;;;;;;8.50;4.60;;;;;;;17.70;59.80;101081.13;6277802;22;20012;-81
2023/06/14 01:00:08;;;;;;;5.80;4.38;;;;;;;17.67;59.21;101078.69;6277294;22;20434;-80
2023/06/14 01:02:37;;;;;;;6.97;4.22;;;;;;;17.68;58.61;101093.41;6275683;22;20331;-80
2023/06/14 01:05:03;;;;;;;6.10;3.97;;;;;;;17.51;59.94;101086.88;6275487;22;20015;-80
2023/06/14 01:07:47;;;;;;;14.90;4.13;;;;;;;17.54;59.89;101083.78;6277883;22;20008;-80
2023/06/14 01:10:45;;;;;;;9.90;4.07;;;;;;;17.54;59.47;101083.78;6275966;22;20028;-80
2023/06/14 01:13:35;;;;;;;5.93;3.70;;;;;;;17.53;57.92;101085.69;6231093;22;20050;-80
2023/06/14 01:16:02;;;;;;;5.40;3.58;;;;;;;17.61;57.63;101080.22;6257809;22;20378;-81
2023/06/14 01:18:29;;;;;;;7.60;3.92;;;;;;;17.53;58.98;101093.09;6276241;22;20007;-81
2023/06/14 01:20:55;;;;;;;8.10;3.88;;;;;;;17.53;58.69;101091.22;6274998;22;20085;-81
2023/06/14 01:23:22;;;;;;;7.00;4.00;;;;;;;17.44;59.39;101087.50;6277378;22;20083;-81
2023/06/14 01:25:52;;;;;;;5.47;3.58;;;;;;;17.34;59.26;101075.66;6283846;22;20015;-81
2023/06/14 01:28:20;;;;;;;7.40;3.25;;;;;;;17.29;59.50;101083.59;6262779;22;20018;-80
2023/06/14 01:30:52;;;;;;;3.65;3.35;;;;;;;17.32;59.09;101085.19;6259728;22;20014;-80
2023/06/14 01:33:27;;;;;;;5.97;3.55;;;;;;;17.33;59.25;101086.91;6278008;22;20007;-81
2023/06/14 01:35:54;;;;;;;4.78;4.03;;;;;;;17.29;59.77;101089.13;6276355;22;20011;-81
2023/06/14 01:38:24;;;;;;;4.18;3.50;;;;;;;17.22;59.68;101090.81;6274807;22;20007;-80
2023/06/14 01:40:51;;;;;;;7.97;3.60;;;;;;;17.13;60.14;101091.75;6275560;22;20039;-80
2023/06/14 01:43:18;;;;;;;6.55;3.60;;;;;;;17.12;60.54;101092.75;6275475;22;20014;-81
2023/06/14 01:45:47;;;;;;;7.38;3.60;;;;;;;17.22;60.51;101094.44;6249723;22;20023;-81
2023/06/14 01:48:12;;;;;;;9.88;3.25;;;;;;;17.16;59.83;101080.38;6275175;22;20343;-81
2023/06/14 01:50:38;;;;;;;6.57;3.53;;;;;;;17.12;59.52;101090.00;6276735;22;20007;-81
2023/06/14 01:53:07;;;;;;;9.43;3.53;;;;;;;17.10;59.66;101084.63;6276535;22;20012;-80
2023/06/14 01:55:37;;;;;;;7.10;3.40;;;;;;;17.04;59.56;101088.91;6274887;22;20065;-80
2023/06/14 01:58:02;;;;;;;4.75;3.58;;;;;;;17.06;59.85;101080.44;6249630;22;20022;-81
2023/06/14 02:00:28;;;;;;;7.22;3.47;;;;;;;16.96;60.73;101086.06;6276625;22;20003;-81
2023/06/14 02:02:53;;;;;;;5.40;3.53;;;;;;;16.85;60.36;101073.31;6275266;22;20008;-81
2023/06/14 02:05:19;;;;;;;4.13;3.38;;;;;;;16.85;61.00;101081.63;6249611;22;20427;-81
2023/06/14 02:07:46;;;;;;;8.52;4.05;;;;;;;16.75;61.04;101083.56;6249179;22;20003;-81
2023/06/14 02:10:11;;;;;;;6.50;4.10;;;;;;;16.78;61.64;101085.16;6276402;22;20008;-81
2023/06/14 02:12:37;;;;;;;7.47;3.45;;;;;;;16.79;61.53;101076.69;6275643;22;20301;-81
2023/06/14 02:15:03;;;;;;;6.55;3.50;;;;;;;16.83;60.71;101077.25;6275383;22;20597;-81
2023/06/14 02:17:29;;;;;;;4.20;3.20;;;;;;;16.73;61.91;101082.84;6274689;22;20466;-81
2023/06/14 02:19:57;;;;;;;7.60;3.53;;;;;;;16.64;62.34;101075.47;6277049;22;20016;-80
2023/06/14 02:22:22;;;;;;;10.27;3.45;;;;;;;16.69;62.56;101078.63;6249356;22;20019;-81
2023/06/14 02:24:48;;;;;;;5.03;3.28;;;;;;;16.48;63.11;101079.81;6275129;22;20416;-80
2023/06/14 02:27:14;;;;;;;8.60;3.22;;;;;;;16.43;62.75;101073.88;6274892;22;20011;-81
2023/06/14 02:29:39;;;;;;;8.65;3.00;;;;;;;16.51;62.21;101092.44;6250923;22;20039;-80
2023/06/14 02:32:07;;;;;;;5.65;3.72;;;;;;;16.62;62.59;101085.81;6249908;22;20039;-81
2023/06/14 02:34:33;;;;;;;5.25;3.55;;;;;;;16.51;62.44;101082.25;6275047;22;20443;-80
2023/06/14 02:37:00;;;;;;;5.55;3.30;;;;;;;16.57;62.83;101094.59;6274835;22;20034;-82
2023/06/14 02:39:25;;;;;;;7.28;3.58;;;;;;;16.48;62.98;101099.16;6275247;22;20022;-80
2023/06/14 02:41:51;;;;;;;6.25;3.63;;;;;;;16.47;63.39;101097.41;6274700;22;20104;-82
2023/06/14 02:44:23;;;;;;;7.07;3.50;;;;;;;16.42;63.28;101085.09;6248915;22;20407;-83
2023/06/14 02:46:49;;;;;;;5.43;3.53;;;;;;;16.29;63.98;101086.31;6249514;22;20010;-82
2023/06/14 02:49:14;;;;;;;5.97;3.22;;;;;;;16.34;64.05;101095.00;6275949;22;20051;-82
2023/06/14 02:51:40;;;;;;;7.40;3.15;;;;;;;16.30;64.47;101096.34;6275336;22;20026;-82
2023/06/14 02:54:05;;;;;;;3.95;2.90;;;;;;;16.14;66.00;101088.69;6274613;22;20082;-81
2023/06/14 02:56:30;;;;;;;6.95;3.88;;;;;;;16.14;66.22;101087.84;6248962;22;20012;-81
2023/06/14 02:58:57;;;;;;;10.63;3.72;;;;;;;16.21;66.08;101104.69;6276192;22;20011;-81
2023/06/14 03:01:23;;;;;;;9.73;3.58;;;;;;;16.14;65.60;101109.94;6274681;22;20090;-81
2023/06/14 03:03:48;;;;;;;8.35;3.55;;;;;;;16.15;65.79;101103.38;6276269;22;20011;-81
2023/06/14 03:06:16;;;;;;;5.18;3.45;;;;;;;16.18;64.78;101108.59;6249222;22;20027;-80
2023/06/14 03:08:42;;;;;;;5.55;3.63;;;;;;;16.13;65.75;101108.19;6274659;22;20434;-81
2023/06/14 03:11:08;;;;;;;6.63;3.78;;;;;;;16.11;66.54;101113.88;6224351;22;20015;-81
2023/06/14 03:13:37;;;;;;;5.32;3.70;;;;;;;16.13;66.43;101114.59;6275186;22;20512;-81
2023/06/14 03:16:03;;;;;;;5.35;3.75;;;;;;;16.11;66.55;101118.53;6274203;22;20106;-81
2023/06/14 03:18:35;;;;;;;5.68;3.60;;;;;;;16.11;66.30;101116.63;6275583;22;20039;-80
2023/06/14 03:21:01;;;;;;;5.20;3.43;;;;;;;16.00;66.92;101111.28;6274210;22;20023;-81
2023/06/14 03:23:30;;;;;;;7.70;3.60;;;;;;;16.05;67.00;101121.88;6274645;22;20305;-80
2023/06/14 03:25:55;;;;;;;7.47;3.08;;;;;;;15.98;66.72;101124.38;6274408;22;20023;-81
2023/06/14 03:28:21;;;;;;;7.40;4.05;;;;;;;16.00;66.88;101125.09;6273674;22;19999;-80
2023/06/14 03:30:46;;;;;;;4.95;3.92;;;;;;;15.90;68.91;101125.13;6274262;22;20098;-82
2023/06/14 03:33:12;;;;;;;3.72;3.20;;;;;;;15.92;68.98;101127.75;6275991;22;20012;-82
2023/06/14 03:35:37;;;;;;;6.60;3.28;;;;;;;15.90;69.05;101130.66;6274373;22;20324;-80
2023/06/14 03:38:03;;;;;;;5.85;3.55;;;;;;;15.68;69.94;101108.91;6223136;22;20020;-80
2023/06/14 03:40:29;;;;;;;7.82;3.60;;;;;;;15.81;69.77;101128.81;6223429;22;20031;-81
2023/06/14 03:42:55;;;;;;;5.53;3.50;;;;;;;15.86;67.90;101123.69;6223030;22;20557;-81
2023/06/14 03:45:21;;;;;;;4.50;3.45;;;;;;;15.80;69.16;101129.81;6274576;22;20027;-81
2023/06/14 03:47:47;;;;;;;4.55;3.85;;;;;;;15.83;69.04;101131.41;6274319;22;20082;-81
2023/06/14 03:50:13;;;;;;;6.68;3.65;;;;;;;15.77;69.96;101131.00;6274056;22;20443;-82
2023/06/14 03:52:38;;;;;;;6.72;3.60;;;;;;;15.77;69.19;101132.88;6247460;22;20034;-80
2023/06/14 03:55:04;;;;;;;6.22;2.95;;;;;;;15.83;69.51;101139.69;6274033;22;20012;-81
2023/06/14 03:57:30;;;;;;;9.45;3.97;;;;;;;15.82;70.53;101138.81;6275896;22;20061;-80
2023/06/14 03:59:56;;;;;;;8.05;3.38;;;;;;;15.77;71.15;101143.91;6274304;22;20323;-81
2023/06/14 04:02:22;;;;;;;9.88;3.33;;;;;;;15.74;71.58;101145.06;6273804;22;20372;-81
2023/06/14 04:04:48;;;;;;;9.20;3.72;;;;;;;15.90;70.84;101151.88;6275180;22;20007;-79
2023/06/14 04:07:14;;;;;;;8.98;3.92;;;;;;;15.84;71.15;101142.31;6247930;22;20092;-80
2023/06/14 04:09:40;;;;;;;10.93;3.28;;;;;;;15.86;70.09;101150.44;6275191;22;20004;-79
2023/06/14 04:12:08;;;;;;;13.50;3.33;;;;;;;15.94;70.71;101156.09;6272463;22;20022;-79
2023/06/14 04:14:35;;;;;;;11.05;4.43;;;;;;;15.91;70.77;101150.88;6275112;22;20007;-79
2023/06/14 04:17:00;;;;;;;13.60;3.67;;;;;;;15.95;71.43;101153.19;6275204;22;20043;-79
2023/06/14 04:19:26;;;;;;;9.35;3.70;;;;;;;16.00;71.09;101144.44;6275300;22;20015;-79
2023/06/14 04:21:52;;;;;;;10.35;3.92;;;;;;;15.93;72.14;101148.81;6248262;22;20727;-78
2023/06/14 04:24:17;;;;;;;8.45;3.42;;;;;;;16.11;71.01;101159.97;6274886;22;20026;-77
2023/06/14 04:26:47;;;;;;;10.10;3.95;;;;;;;16.07;72.46;101158.50;6248146;22;20088;-77
2023/06/14 04:29:16;;;;;;;8.43;3.38;;;;;;;16.00;73.50;101158.25;6274650;22;20443;-78
2023/06/14 04:31:44;;;;;;;5.30;3.30;;;;;;;16.06;73.44;101148.50;6247752;22;20018;-80
2023/06/14 04:34:16;;;;;;;10.52;3.90;;;;;;;16.04;73.79;101156.94;6273632;22;20003;-76
2023/06/14 04:36:52;;;;;;;3.85;3.45;;;;;;;16.10;73.98;101160.97;6276730;22;20347;-80
2023/06/14 04:39:22;;;;;;;6.45;3.60;;;;;;;16.15;73.82;101154.00;6275641;22;20458;-78
2023/06/14 04:41:52;;;;;;;6.38;4.13;;;;;;;16.32;72.25;101166.13;6275752;22;20246;-79
2023/06/14 04:44:19;;;;;;;13.40;3.50;;;;;;;16.42;71.40;101168.88;6273094;22;20016;-79
2023/06/14 04:46:48;;;;;;;12.20;3.92;;;;;;;16.41;72.40;101175.41;6275300;22;20079;-80
2023/06/14 04:49:18;;;;;;;11.30;3.75;;;;;;;16.48;72.43;101164.63;6274795;22;20015;-79
2023/06/14 04:51:44;;;;;;;9.80;3.78;;;;;;;16.52;70.91;101164.16;6248412;22;20331;-80
2023/06/14 04:54:13;;;;;;;10.25;4.68;;;;;;;16.63;70.84;101170.53;6273132;22;20014;-77
2023/06/14 04:56:40;;;;;;;8.00;4.40;;;;;;;16.54;70.90;101172.28;6274331;22;20487;-78
2023/06/14 04:59:05;;;;;;;10.90;4.32;;;;;;;16.63;72.18;101173.28;6273436;22;20020;-78
2023/06/14 05:01:32;;;;;;;6.15;4.03;;;;;;;16.76;71.60;101183.97;6247040;22;20039;-78
2023/06/14 05:03:58;;;;;;;8.57;4.05;;;;;;;16.81;71.09;101173.34;6273028;22;20012;-77
2023/06/14 05:06:23;;;;;;;9.82;4.40;;;;;;;16.93;70.57;101174.88;6273945;22;20012;-77
2023/06/14 05:08:49;;;;;;;11.40;4.20;;;;;;;16.92;70.07;101170.38;6273873;22;20042;-79
2023/06/14 05:11:14;;;;;;;5.43;3.85;;;;;;;16.98;69.89;101171.66;6220632;22;20399;-79
2023/06/14 05:13:40;;;;;;;4.25;3.85;;;;;;;17.01;70.44;101166.66;6246499;22;20101;-78
2023/06/14 05:16:07;;;;;;;8.70;4.10;;;;;;;17.12;70.01;101186.84;6273883;22;20018;-80
2023/06/14 05:18:35;;;;;;;5.72;4.13;;;;;;;17.32;68.70;101180.16;6272990;22;20320;-79
2023/06/14 05:21:01;;;;;;;13.65;3.83;;;;;;;17.64;68.01;101189.78;6222010;22;20089;-79
2023/06/14 05:23:26;;;;;;;8.18;3.25;;;;;;;17.95;66.70;101193.00;6272168;22;20454;-81
2023/06/14 05:25:52;;;;;;;5.88;3.53;;;;;;;18.27;64.54;101188.72;6247487;22;20023;-80
2023/06/14 05:28:18;;;;;;;6.05;3.55;;;;;;;18.40;63.61;101198.50;6248437;22;20320;-79
2023/06/14 05:30:44;;;;;;;4.35;3.05;;;;;;;18.59;62.81;101191.84;6247072;22;20023;-80
2023/06/14 05:33:09;;;;;;;6.63;3.13;;;;;;;18.98;59.91;101192.19;6274766;22;20082;-80
2023/06/14 05:35:34;;;;;;;4.45;2.92;;;;;;;19.19;58.74;101190.88;6257269;22;20122;-79
2023/06/14 05:38:00;;;;;;;3.90;3.03;;;;;;;19.34;58.01;101208.63;6276038;22;20042;-80
2023/06/14 05:40:25;;;;;;;7.55;2.92;;;;;;;19.54;58.18;101197.19;6273638;22;20014;-79
2023/06/14 05:42:51;;;;;;;8.38;3.00;;;;;;;19.72;56.39;101210.91;6276063;22;20013;-80
2023/06/14 05:45:16;;;;;;;10.70;2.88;;;;;;;19.91;55.08;101212.53;6274595;22;20435;-79
2023/06/14 05:47:45;;;;;;;6.78;2.75;;;;;;;20.25;53.70;101217.00;6277029;22;20011;-80
2023/06/14 05:50:10;;;;;;;4.88;2.83;;;;;;;20.39;53.74;101219.06;6224337;22;20439;-80
2023/06/14 05:52:36;;;;;;;7.72;3.10;;;;;;;20.53;53.36;101223.91;6274604;22;20014;-81
2023/06/14 05:55:03;;;;;;;8.68;2.67;;;;;;;20.61;54.18;101217.44;6273467;22;20427;-81
2023/06/14 05:57:29;;;;;;;6.22;2.88;;;;;;;21.07;52.74;101217.63;6274691;22;20016;-80
2023/06/14 05:59:55;;;;;;;10.88;3.30;;;;;;;21.13;52.30;101218.81;6248869;22;20015;-80
2023/06/14 06:02:20;;;;;;;15.98;3.20;;;;;;;20.96;51.59;101208.81;6273229;22;20491;-79
2023/06/14 06:04:46;;;;;;;11.13;2.92;;;;;;;21.74;50.36;101229.25;6248153;22;20008;-80
2023/06/14 06:07:11;;;;;;;4.55;3.10;;;;;;;21.68;49.84;101225.31;6248264;22;20014;-80
2023/06/14 06:09:37;;;;;;;6.45;3.15;;;;;;;21.81;49.77;101239.47;6274555;22;20077;-80
2023/06/14 06:12:03;;;;;;;10.10;3.50;;;;;;;21.85;49.23;101234.38;6222202;22;20339;-78
2023/06/14 06:14:28;;;;;;;5.43;3.10;;;;;;;22.00;48.11;101234.44;6274456;22;20022;-78
2023/06/14 06:16:55;;;;;;;6.47;2.72;;;;;;;22.29;47.90;101230.03;6222316;22;20008;-77
2023/06/14 06:19:20;;;;;;;3.28;2.90;;;;;;;22.39;47.78;101245.44;6273764;22;20311;-76
2023/06/14 06:21:46;;;;;;;10.05;2.95;;;;;;;22.87;45.93;101244.22;6247589;22;20007;-77
2023/06/14 06:24:11;;;;;;;4.97;2.67;;;;;;;23.04;45.30;101245.75;6271694;22;20087;-78
2023/06/14 06:26:37;;;;;;;9.02;2.70;;;;;;;22.92;46.49;101239.78;6272561;22;20331;-76
2023/06/14 06:29:03;;;;;;;5.20;2.42;;;;;;;22.95;46.30;101247.75;6246902;22;20011;-78
2023/06/14 06:31:28;;;;;;;9.52;2.53;;;;;;;22.81;46.89;101242.19;6248314;22;20022;-77
2023/06/14 06:33:54;;;;;;;6.55;2.70;;;;;;;23.40;45.20;101256.13;6223313;22;20007;-77
2023/06/14 06:36:21;;;;;;;10.07;2.72;;;;;;;23.25;45.30;101249.69;6246991;22;20320;-78
2023/06/14 06:38:47;;;;;;;11.23;2.78;;;;;;;23.94;43.30;101253.91;6272724;22;20011;-79
2023/06/14 06:41:13;;;;;;;13.13;2.88;;;;;;;23.60;43.71;101258.28;6246031;22;20355;-79
2023/06/14 06:43:38;;;;;;;8.38;2.60;;;;;;;23.43;44.92;101264.13;6246268;22;20008;-79
2023/06/14 06:46:04;;;;;;;13.75;3.03;;;;;;;23.43;44.72;101266.91;6274077;22;20023;-78
2023/06/14 06:48:29;;;;;;;8.82;2.28;;;;;;;23.99;43.73;101260.66;6248836;22;20410;-77
2023/06/14 06:50:55;;;;;;;7.05;3.08;;;;;;;23.88;43.19;101271.53;6274708;22;20465;-78
2023/06/14 06:53:21;;;;;;;8.38;2.83;;;;;;;24.27;43.22;101270.16;6276293;22;20012;-79
2023/06/14 06:55:46;;;;;;;3.92;2.47;;;;;;;24.54;41.97;101271.25;6278772;22;20011;-79
2023/06/14 06:58:14;;;;;;;6.13;2.97;;;;;;;24.67;42.28;101270.50;6278595;22;20015;-79
2023/06/14 07:00:39;;;;;;;7.78;2.40;;;;;;;25.18;40.94;101283.31;6283697;22;20382;-80
2023/06/14 07:03:05;;;;;;;12.45;3.45;;;;;;;24.89;40.89;101280.56;6253727;22;20011;-78
2023/06/14 07:05:32;;;;;;;5.22;2.80;;;;;;;25.03;41.57;101283.44;6253892;22;20046;-80
2023/06/14 07:07:57;;;;;;;16.58;3.90;;;;;;;25.49;39.76;101292.09;6283962;22;20035;-80
2023/06/14 07:10:24;;;;;;;9.27;2.63;;;;;;;25.53;39.97;101288.88;6278091;22;20050;-81
2023/06/14 07:12:50;;;;;;;6.03;3.17;;;;;;;25.80;40.05;101290.69;6251980;22;20023;-80
2023/06/14 07:15:16;;;;;;;7.55;3.05;;;;;;;25.28;41.18;101289.44;6277829;22;20023;-80
2023/06/14 07:17:42;;;;;;;5.35;2.53;;;;;;;26.36;38.20;101288.63;6255009;22;20007;-81
2023/06/14 07:20:11;;;;;;;7.38;2.72;;;;;;;25.88;39.11;101297.19;6260458;22;20016;-80
2023/06/14 07:22:43;;;;;;;10.80;2.60;;;;;;;25.33;40.46;101300.88;6284690;22;20493;-79
2023/06/14 07:25:13;;;;;;;3.08;2.33;;;;;;;25.90;39.68;101295.91;6284429;22;20008;-80
2023/06/14 07:27:40;;;;;;;7.95;2.50;;;;;;;25.82;38.64;101298.91;6284118;22;20004;-80
2023/06/14 07:30:08;;;;;;;7.18;2.25;;;;;;;26.26;37.52;101297.50;6288728;22;20022;-81
2023/06/14 07:32:33;;;;;;;9.50;2.25;;;;;;;26.02;37.36;101296.16;6294915;22;20008;-80
2023/06/14 07:34:59;;;;;;;9.43;2.20;;;;;;;26.14;38.11;101294.47;6216751;22;20046;-80
2023/06/14 07:37:25;;;;;;;12.90;2.78;;;;;;;26.22;37.99;101297.06;6230656;22;20042;-81
2023/06/14 07:39:50;;;;;;;12.43;2.47;;;;;;;26.54;36.01;101297.28;6275356;22;20470;-83
2023/06/14 07:42:16;;;;;;;10.80;2.30;;;;;;;26.60;36.49;101299.22;6274329;22;20067;-83
2023/06/14 07:44:41;;;;;;;6.60;1.77;;;;;;;26.51;35.99;101306.13;6249613;22;20028;-80
2023/06/14 07:47:07;;;;;;;6.18;1.90;;;;;;;25.92;36.05;101302.16;6249979;22;20014;-84
2023/06/14 07:49:33;;;;;;;6.75;1.83;;;;;;;26.53;36.69;101318.03;6225090;22;20012;-83
2023/06/14 07:51:59;;;;;;;7.95;1.75;;;;;;;26.50;35.97;101321.28;6218240;22;20076;-82
2023/06/14 07:54:26;;;;;;;2.80;1.90;;;;;;;26.56;34.92;101306.38;6238563;22;20015;-83
2023/06/14 07:56:52;;;;;;;3.33;1.77;;;;;;;26.83;35.04;101309.19;6261896;22;20028;-81
2023/06/14 07:59:18;;;;;;;5.20;1.83;;;;;;;26.55;34.55;101320.63;6276939;22;20040;-82
2023/06/14 08:01:46;;;;;;;9.00;1.80;;;;;;;26.24;36.52;101322.13;6249345;22;20331;-82
2023/06/14 08:04:15;;;;;;;3.55;1.40;;;;;;;27.04;34.99;101308.06;6275545;22;20099;-82
2023/06/14 08:06:44;;;;;;;3.63;1.35;;;;;;;27.34;34.61;101332.03;6277056;22;20030;-82
2023/06/14 08:09:10;;;;;;;3.83;1.23;;;;;;;27.23;35.13;101320.31;6280886;22;20090;-82
2023/06/14 08:11:36;;;;;;;4.15;1.60;;;;;;;27.64;33.51;101321.91;6280378;22;20015;-82
2023/06/14 08:14:02;;;;;;;5.32;1.77;;;;;;;27.79;33.96;101318.81;6254199;22;20031;-82
2023/06/14 08:16:27;;;;;;;5.30;1.48;;;;;;;27.87;33.19;101320.50;6279832;22;20011;-83
2023/06/14 08:18:53;;;;;;;6.97;1.30;;;;;;;27.71;33.59;101326.66;6251400;22;20023;-83
2023/06/14 08:21:19;;;;;;;9.00;1.60;;;;;;;27.99;32.67;101327.19;6255037;22;20011;-83
2023/06/14 08:23:44;;;;;;;3.35;1.38;;;;;;;27.91;31.93;101327.44;6261458;22;20042;-84
2023/06/14 08:26:10;;;;;;;7.30;1.38;;;;;;;27.95;32.64;101320.28;6238124;22;20079;-83
2023/06/14 08:28:36;;;;;;;5.63;1.55;;;;;;;28.00;33.61;101316.78;6271501;22;19992;-85
2023/06/14 08:31:01;;;;;;;6.35;1.40;;;;;;;27.87;32.99;101332.63;6297576;22;20015;-85
2023/06/14 08:33:27;;;;;;;6.28;1.25;;;;;;;28.10;32.22;101319.97;6297646;22;20191;-84
2023/06/14 08:35:52;;;;;;;8.50;1.13;;;;;;;27.44;32.07;101324.81;6247633;22;20036;-82
2023/06/14 08:38:18;;;;;;;5.32;1.00;;;;;;;27.61;31.89;101325.16;6273899;22;20008;-82
2023/06/14 08:40:47;;;;;;;3.55;1.15;;;;;;;27.90;30.22;101328.50;6273266;22;20016;-82
2023/06/14 08:43:13;;;;;;;2.88;1.00;;;;;;;27.54;31.18;101310.28;6299376;22;20008;-83
2023/06/14 08:45:39;;;;;;;5.60;1.00;;;;;;;27.35;30.93;101325.28;6301154;22;20055;-81
2023/06/14 08:48:07;;;;;;;3.03;1.00;;;;;;;28.68;28.92;101324.53;6291333;22;20008;-79
2023/06/14 08:50:34;;;;;;;1.67;0.90;;;;;;;29.01;28.07;101325.28;6282199;22;20007;-80
2023/06/14 08:53:02;;;;;;;3.30;0.70;;;;;;;28.34;28.53;101329.53;6280147;22;20086;-79
2023/06/14 08:55:29;;;;;;;5.22;0.63;;;;;;;28.08;28.52;101316.50;6253442;22;20043;-80
2023/06/14 08:57:57;;;;;;;3.75;0.77;;;;;;;28.13;28.56;101332.72;6278893;22;20015;-80
2023/06/14 09:00:24;;;;;;;4.00;0.70;;;;;;;28.39;27.67;101332.53;6277237;22;20024;-79
2023/06/14 09:02:55;;;;;;;7.63;0.85;;;;;;;28.70;26.90;101327.13;6249447;22;20008;-79
2023/06/14 09:05:23;;;;;;;2.85;0.98;;;;;;;28.24;27.87;101317.94;6277683;22;20042;-79
2023/06/14 09:07:50;;;;;;;0.70;0.70;;;;;;;27.85;27.85;101315.09;6258551;22;20032;-80
2023/06/14 09:10:16;;;;;;;3.42;0.65;;;;;;;28.20;27.39;101323.16;6287333;22;20018;-79
2023/06/14 09:12:42;;;;;;;5.45;0.88;;;;;;;27.10;28.20;101323.16;6294853;22;20038;-80
2023/06/14 09:15:09;;;;;;;3.97;1.10;;;;;;;28.10;28.93;101325.59;6296457;22;20016;-79
2023/06/14 09:17:39;;;;;;;1.67;0.80;;;;;;;28.49;28.49;101322.72;6292493;22;20007;-79
2023/06/14 09:20:06;;;;;;;5.80;1.17;;;;;;;28.52;28.39;101320.28;6295702;22;20018;-80
2023/06/14 09:22:36;;;;;;;5.05;1.10;;;;;;;28.35;28.17;101324.75;6293456;22;20026;-80
2023/06/14 09:25:02;;;;;;;1.75;0.85;;;;;;;28.41;28.94;101326.66;6295021;22;20008;-80
2023/06/14 09:27:28;;;;;;;4.80;0.80;;;;;;;28.82;27.79;101321.59;6292774;22;20003;-80
2023/06/14 09:29:54;;;;;;;2.75;0.80;;;;;;;28.59;27.31;101343.66;6262140;22;20061;-80
2023/06/14 09:32:21;;;;;;;2.47;1.00;;;;;;;28.34;26.78;101331.50;6258466;22;20012;-79
2023/06/14 09:34:47;;;;;;;2.15;0.80;;;;;;;28.66;27.15;101323.03;6260332;22;20022;-79
2023/06/14 09:37:12;;;;;;;3.38;0.80;;;;;;;28.95;26.49;101322.31;6287706;22;20003;-79
2023/06/14 09:39:51;;;;;;;8.25;0.73;;;;;;;28.42;27.36;101331.22;6286860;22;20415;-78
2023/06/14 09:42:18;;;;;;;1.65;0.88;;;;;;;28.78;26.11;101340.94;6284455;22;20003;-79
2023/06/14 09:44:47;;;;;;;2.22;0.80;;;;;;;28.92;26.41;101328.41;6284669;22;20091;-81
2023/06/14 09:47:15;;;;;;;2.83;0.70;;;;;;;29.05;27.44;101333.03;6287461;22;20011;-83
2023/06/14 09:49:41;;;;;;;2.65;0.90;;;;;;;28.55;27.37;101333.06;6276996;22;20099;-84
2023/06/14 09:52:07;;;;;;;4.43;0.80;;;;;;;28.57;28.60;101322.47;6252113;22;20705;-84
2023/06/14 09:54:42;;;;;;;2.95;0.80;;;;;;;28.70;27.50;101313.88;6281245;22;20408;-84
2023/06/14 09:57:08;;;;;;;6.22;0.80;;;;;;;29.06;28.07;101317.88;6279358;22;20015;-84
2023/06/14 09:59:35;;;;;;;2.30;1.15;;;;;;;28.26;28.35;101315.75;6290488;22;20012;-84
2023/06/14 10:02:09;;;;;;;4.57;0.90;;;;;;;28.07;28.95;101325.19;6271630;22;20011;-83
2023/06/14 10:04:35;;;;;;;1.80;1.20;;;;;;;27.87;29.16;101323.31;6288360;22;20035;-85
2023/06/14 10:07:05;;;;;;;5.28;0.90;;;;;;;27.99;28.66;101326.31;6289282;22;20016;-83
2023/06/14 10:09:30;;;;;;;0.98;0.90;;;;;;;28.10;28.89;101319.09;6290903;22;20027;-83
2023/06/14 10:11:56;;;;;;;1.77;0.98;;;;;;;28.35;28.96;101324.75;6292400;22;20019;-82
2023/06/14 10:14:22;;;;;;;1.15;0.90;;;;;;;28.58;28.45;101325.06;6226530;22;20011;-82
2023/06/14 10:17:05;;;;;;;1.50;0.90;;;;;;;28.89;27.16;101311.97;6278019;22;20008;-82
2023/06/14 10:19:37;;;;;;;5.95;1.02;;;;;;;28.93;27.59;101318.84;6279744;22;20020;-81
2023/06/14 10:22:19;;;;;;;3.90;1.00;;;;;;;28.92;26.71;101328.41;6281141;22;20011;-82
2023/06/14 10:24:45;;;;;;;2.85;0.93;;;;;;;28.48;27.74;101323.78;6282305;22;20400;-81
2023/06/14 10:27:16;;;;;;;1.42;0.77;;;;;;;28.49;28.14;101328.34;6284353;22;20335;-81
2023/06/14 10:29:55;;;;;;;2.58;1.15;;;;;;;28.61;26.71;101326.53;6280945;22;20027;-82
2023/06/14 10:32:23;;;;;;;1.77;0.80;;;;;;;28.22;28.04;101332.22;6282274;22;20012;-81
2023/06/14 10:35:00;;;;;;;4.93;1.00;;;;;;;28.24;29.48;101317.94;6259850;22;20011;-82
2023/06/14 10:37:26;;;;;;;4.82;0.90;;;;;;;28.36;28.75;101324.53;6287357;22;20010;-81
2023/06/14 10:39:53;;;;;;;2.85;0.98;;;;;;;28.89;29.74;101308.28;6285053;22;20046;-82
2023/06/14 10:42:19;;;;;;;6.43;1.63;;;;;;;28.47;28.19;101311.69;6259019;22;20031;-81
2023/06/14 10:44:45;;;;;;;2.53;1.00;;;;;;;28.21;30.47;101313.59;6287320;22;20015;-81
2023/06/14 10:47:21;;;;;;;2.05;1.00;;;;;;;28.70;29.00;101313.03;6287665;22;20018;-82
2023/06/14 10:49:51;;;;;;;1.17;0.88;;;;;;;28.70;29.77;101313.88;6288490;22;20008;-82
2023/06/14 10:52:21;;;;;;;1.70;0.90;;;;;;;28.86;29.01;101322.84;6288320;22;20029;-81
2023/06/14 10:55:09;;;;;;;1.00;0.90;;;;;;;28.48;29.22;101324.66;6288192;22;20083;-81
2023/06/14 10:57:40;;;;;;;3.25;1.00;;;;;;;28.67;28.61;101314.34;6282507;22;20073;-82
2023/06/14 11:00:15;;;;;;;5.53;0.93;;;;;;;28.11;29.93;101318.03;6280880;22;20010;-81
2023/06/14 11:03:13;;;;;;;4.68;0.95;;;;;;;28.74;28.81;101319.91;6276473;22;20074;-81
2023/06/14 11:05:52;;;;;;;7.50;0.90;;;;;;;28.23;28.77;101327.47;6277237;22;20027;-83
2023/06/14 11:08:47;;;;;;;4.65;0.80;;;;;;;28.80;28.66;101323.78;6278410;22;20003;-81
2023/06/14 11:11:13;;;;;;;4.20;0.80;;;;;;;28.22;30.39;101320.09;6276634;22;20008;-81
2023/06/14 11:13:41;;;;;;;0.80;0.80;;;;;;;28.65;28.49;101324.13;6277499;22;20004;-82
2023/06/14 11:16:14;;;;;;;0.80;0.80;;;;;;;27.84;28.60;101321.84;6280112;22;20008;-82
2023/06/14 11:18:40;;;;;;;2.20;0.80;;;;;;;28.08;29.73;101329.75;6259314;22;20016;-82
2023/06/14 11:21:06;;;;;;;1.30;0.85;;;;;;;28.10;30.21;101327.56;6251113;22;20098;-81
2023/06/14 11:23:31;;;;;;;0.85;0.77;;;;;;;27.74;30.45;101317.78;6250927;22;20020;-82
2023/06/14 11:25:57;;;;;;;1.35;0.82;;;;;;;27.67;31.00;101318.66;6250565;22;20015;-82